Brainerd Lakes Regional Airport
KBRD : now visible

Airfield :











YOU CAN JOIN US ON...

 
LOGIN :

Register | Disclaimer

   EN    FR    IT 

 









Legend :    VFR   Marginal VFR   IFR   Intensive IFR   Very Intensive IFR
Visi :
Ceiling :
>= 8 km
>= 3000ft
5 to 8 km
1000 to 3000 ft
1500m to 5 km
500 to 1000 ft
800 to 1500m
200 to 500 ft
< 800m
< 200 ft
Symbols :   Thunderstorms  Fog  Heavy snow  Heavy precipitations  Wind > 20 kt






- Airport Elevation : 1232 ft


KBRD - Brainerd Lakes Regional

CURRENT METAR :
  • 271353Z AUTO 04005KT 8SM -RA OVC065 11/10 A2978 RMK AO2 SLP087 P0010 T01110100 $

EXPIRED METARs :
  • 271329Z AUTO 03005KT 3SM RA BR OVC070 12/10 A2978 RMK AO2 P0008 T01170100 $
  • 271312Z AUTO 35004KT 2SM RA BR OVC065 11/09 A2978 RMK AO2 P0005 T01110094 $
  • 271253Z AUTO 36004KT 7SM -RA OVC070 11/09 A2978 RMK AO2 SLP087 P0005 T01110094 $
  • 271153Z AUTO VRB05KT 4SM -RA OVC070 12/09 A2977 RMK AO2 SLP081 P0001 60002 70002 T01170089 10122 20083 53009 $
  • 271053Z AUTO 26007KT 4SM RA BR OVC070 12/11 A2976 RMK AO2 RAB30 SLP077 P0001 T01170106 $
  • 270953Z AUTO 00000KT 10SM BKN065 BKN080 10/09 A2974 RMK AO2 SLP072 T01000089 $

TAF KBRD
Valid from the 27 at 13:00 until the 28 at 12:00 UTC


271325Z 2713/2812 VRB04KT 6SM -SHRA OVC050
TEMPO 2713/2714 2SM RA
FM271800 34005KT 6SM -SHRA BR VCTS OVC030CB
FM280200 33005KT P6SM SCT060
KZMP FIR / North America



MET'MAP, your aeronautical weather chart ! - Copyright ORBIFLY December 2007 - Disclaimer

ORBIFLY MET'MAP TEAM :

Programming & Development : Alexandra Zaïnal
Original concept : Baudouin d'Aumeries
Technical & hardware support : Manuel Goepfert
Assistance : Marc-Olivier Méhu




SOURCES & CREDITS :

   NOAA       Earth
Advisory